sensor_id;sensor_type;location;lat;lon;timestamp;P1;durP1;ratioP1;P2;durP2;ratioP2
12554;SDS011;6343;50.868;4.700;2024-03-02T00:02:02;0.40;;;0.40;;
12554;SDS011;6343;50.868;4.700;2024-03-02T00:04:28;0.77;;;0.40;;
12554;SDS011;6343;50.868;4.700;2024-03-02T00:06:54;0.70;;;0.50;;
12554;SDS011;6343;50.868;4.700;2024-03-02T00:09:21;0.50;;;0.50;;
12554;SDS011;6343;50.868;4.700;2024-03-02T00:11:47;0.70;;;0.40;;
12554;SDS011;6343;50.868;4.700;2024-03-02T00:14:13;0.40;;;0.33;;
12554;SDS011;6343;50.868;4.700;2024-03-02T00:16:39;0.47;;;0.47;;
12554;SDS011;6343;50.868;4.700;2024-03-02T00:19:05;0.40;;;0.40;;
12554;SDS011;6343;50.868;4.700;2024-03-02T00:21:33;0.83;;;0.50;;
12554;SDS011;6343;50.868;4.700;2024-03-02T00:23:59;0.97;;;0.40;;
12554;SDS011;6343;50.868;4.700;2024-03-02T00:26:25;0.73;;;0.60;;
12554;SDS011;6343;50.868;4.700;2024-03-02T00:28:54;1.23;;;0.70;;
12554;SDS011;6343;50.868;4.700;2024-03-02T00:31:22;0.57;;;0.40;;
12554;SDS011;6343;50.868;4.700;2024-03-02T00:33:48;1.50;;;0.50;;
12554;SDS011;6343;50.868;4.700;2024-03-02T00:36:15;1.10;;;0.40;;
12554;SDS011;6343;50.868;4.700;2024-03-02T00:38:46;0.40;;;0.40;;
12554;SDS011;6343;50.868;4.700;2024-03-02T00:43:52;0.60;;;0.57;;
12554;SDS011;6343;50.868;4.700;2024-03-02T00:46:22;0.90;;;0.57;;
12554;SDS011;6343;50.868;4.700;2024-03-02T00:48:58;0.70;;;0.60;;
12554;SDS011;6343;50.868;4.700;2024-03-02T00:51:25;3.83;;;0.73;;
12554;SDS011;6343;50.868;4.700;2024-03-02T00:53:52;1.20;;;0.70;;
12554;SDS011;6343;50.868;4.700;2024-03-02T00:56:21;1.10;;;0.60;;
12554;SDS011;6343;50.868;4.700;2024-03-02T00:58:47;0.93;;;0.77;;
12554;SDS011;6343;50.868;4.700;2024-03-02T01:01:13;3.87;;;0.83;;
12554;SDS011;6343;50.868;4.700;2024-03-02T01:03:41;1.90;;;0.80;;
12554;SDS011;6343;50.868;4.700;2024-03-02T01:06:07;2.17;;;0.67;;
12554;SDS011;6343;50.868;4.700;2024-03-02T01:08:36;0.60;;;0.60;;
12554;SDS011;6343;50.868;4.700;2024-03-02T01:11:03;2.20;;;0.70;;
12554;SDS011;6343;50.868;4.700;2024-03-02T01:13:29;0.90;;;0.47;;
12554;SDS011;6343;50.868;4.700;2024-03-02T01:15:55;0.60;;;0.50;;
12554;SDS011;6343;50.868;4.700;2024-03-02T01:18:22;0.77;;;0.60;;
12554;SDS011;6343;50.868;4.700;2024-03-02T01:20:48;0.93;;;0.60;;
12554;SDS011;6343;50.868;4.700;2024-03-02T01:23:19;0.43;;;0.43;;
12554;SDS011;6343;50.868;4.700;2024-03-02T01:25:46;0.40;;;0.40;;
12554;SDS011;6343;50.868;4.700;2024-03-02T01:28:13;1.20;;;0.60;;
12554;SDS011;6343;50.868;4.700;2024-03-02T01:30:39;2.43;;;0.57;;
12554;SDS011;6343;50.868;4.700;2024-03-02T01:33:06;0.80;;;0.50;;
12554;SDS011;6343;50.868;4.700;2024-03-02T01:35:32;1.23;;;0.50;;
12554;SDS011;6343;50.868;4.700;2024-03-02T01:37:59;0.50;;;0.50;;
12554;SDS011;6343;50.868;4.700;2024-03-02T01:40:26;0.47;;;0.43;;
12554;SDS011;6343;50.868;4.700;2024-03-02T01:42:52;0.30;;;0.30;;
12554;SDS011;6343;50.868;4.700;2024-03-02T01:45:24;0.20;;;0.20;;
12554;SDS011;6343;50.868;4.700;2024-03-02T01:47:51;1.43;;;0.30;;
12554;SDS011;6343;50.868;4.700;2024-03-02T01:50:24;0.30;;;0.30;;
12554;SDS011;6343;50.868;4.700;2024-03-02T01:52:50;0.30;;;0.30;;
12554;SDS011;6343;50.868;4.700;2024-03-02T01:55:16;1.63;;;0.47;;
12554;SDS011;6343;50.868;4.700;2024-03-02T01:57:42;0.93;;;0.53;;
12554;SDS011;6343;50.868;4.700;2024-03-02T02:00:10;2.17;;;0.57;;
12554;SDS011;6343;50.868;4.700;2024-03-02T02:02:36;2.83;;;0.80;;
12554;SDS011;6343;50.868;4.700;2024-03-02T02:05:03;0.87;;;0.50;;
12554;SDS011;6343;50.868;4.700;2024-03-02T02:07:29;0.77;;;0.50;;
12554;SDS011;6343;50.868;4.700;2024-03-02T02:09:56;0.73;;;0.60;;
12554;SDS011;6343;50.868;4.700;2024-03-02T02:12:23;0.53;;;0.53;;
12554;SDS011;6343;50.868;4.700;2024-03-02T02:14:49;0.90;;;0.50;;
12554;SDS011;6343;50.868;4.700;2024-03-02T02:17:18;0.73;;;0.60;;
12554;SDS011;6343;50.868;4.700;2024-03-02T02:19:44;1.40;;;0.60;;
12554;SDS011;6343;50.868;4.700;2024-03-02T02:22:11;1.57;;;0.60;;
12554;SDS011;6343;50.868;4.700;2024-03-02T02:24:40;1.20;;;0.50;;
12554;SDS011;6343;50.868;4.700;2024-03-02T02:27:07;1.30;;;0.60;;
12554;SDS011;6343;50.868;4.700;2024-03-02T02:29:33;0.60;;;0.50;;
12554;SDS011;6343;50.868;4.700;2024-03-02T02:32:00;1.83;;;0.60;;
12554;SDS011;6343;50.868;4.700;2024-03-02T02:34:26;2.40;;;0.70;;
12554;SDS011;6343;50.868;4.700;2024-03-02T02:36:52;3.67;;;0.70;;
12554;SDS011;6343;50.868;4.700;2024-03-02T02:39:18;1.20;;;0.70;;
12554;SDS011;6343;50.868;4.700;2024-03-02T02:41:46;0.50;;;0.40;;
12554;SDS011;6343;50.868;4.700;2024-03-02T02:44:12;2.20;;;0.70;;
12554;SDS011;6343;50.868;4.700;2024-03-02T02:46:38;0.90;;;0.50;;
12554;SDS011;6343;50.868;4.700;2024-03-02T02:49:04;1.13;;;0.50;;
12554;SDS011;6343;50.868;4.700;2024-03-02T02:51:31;1.80;;;0.73;;
12554;SDS011;6343;50.868;4.700;2024-03-02T02:53:57;2.80;;;0.50;;
12554;SDS011;6343;50.868;4.700;2024-03-02T02:56:23;3.40;;;0.53;;
12554;SDS011;6343;50.868;4.700;2024-03-02T02:58:49;3.83;;;0.70;;
12554;SDS011;6343;50.868;4.700;2024-03-02T03:01:15;0.97;;;0.50;;
12554;SDS011;6343;50.868;4.700;2024-03-02T03:03:45;0.87;;;0.50;;
12554;SDS011;6343;50.868;4.700;2024-03-02T03:06:11;1.00;;;0.60;;
12554;SDS011;6343;50.868;4.700;2024-03-02T03:08:37;0.80;;;0.60;;
12554;SDS011;6343;50.868;4.700;2024-03-02T03:11:04;2.67;;;0.60;;
12554;SDS011;6343;50.868;4.700;2024-03-02T03:13:33;1.03;;;0.63;;
12554;SDS011;6343;50.868;4.700;2024-03-02T03:16:00;0.80;;;0.50;;
12554;SDS011;6343;50.868;4.700;2024-03-02T03:18:26;0.90;;;0.60;;
12554;SDS011;6343;50.868;4.700;2024-03-02T03:20:52;2.73;;;0.77;;
12554;SDS011;6343;50.868;4.700;2024-03-02T03:23:19;2.07;;;0.80;;
12554;SDS011;6343;50.868;4.700;2024-03-02T03:25:45;1.90;;;0.60;;
12554;SDS011;6343;50.868;4.700;2024-03-02T03:28:12;2.70;;;0.70;;
12554;SDS011;6343;50.868;4.700;2024-03-02T03:30:38;1.33;;;0.80;;
12554;SDS011;6343;50.868;4.700;2024-03-02T03:33:04;1.00;;;0.70;;
12554;SDS011;6343;50.868;4.700;2024-03-02T03:35:34;1.50;;;0.60;;
12554;SDS011;6343;50.868;4.700;2024-03-02T03:38:00;1.33;;;0.60;;
12554;SDS011;6343;50.868;4.700;2024-03-02T03:40:26;2.83;;;0.80;;
12554;SDS011;6343;50.868;4.700;2024-03-02T03:42:52;1.23;;;0.70;;
12554;SDS011;6343;50.868;4.700;2024-03-02T03:45:20;2.17;;;0.63;;
12554;SDS011;6343;50.868;4.700;2024-03-02T03:47:46;1.83;;;0.70;;
12554;SDS011;6343;50.868;4.700;2024-03-02T03:50:12;2.93;;;0.80;;
12554;SDS011;6343;50.868;4.700;2024-03-02T03:52:38;0.90;;;0.70;;
12554;SDS011;6343;50.868;4.700;2024-03-02T03:55:04;2.57;;;0.50;;
12554;SDS011;6343;50.868;4.700;2024-03-02T03:57:31;0.53;;;0.40;;
12554;SDS011;6343;50.868;4.700;2024-03-02T03:59:57;1.00;;;0.60;;
12554;SDS011;6343;50.868;4.700;2024-03-02T04:02:23;2.23;;;0.70;;
12554;SDS011;6343;50.868;4.700;2024-03-02T04:04:49;1.67;;;0.50;;
12554;SDS011;6343;50.868;4.700;2024-03-02T04:07:16;1.50;;;0.77;;
12554;SDS011;6343;50.868;4.700;2024-03-02T04:09:42;0.73;;;0.43;;
12554;SDS011;6343;50.868;4.700;2024-03-02T04:12:08;1.40;;;0.57;;
12554;SDS011;6343;50.868;4.700;2024-03-02T04:14:34;1.60;;;0.70;;
12554;SDS011;6343;50.868;4.700;2024-03-02T04:17:00;1.53;;;0.70;;
12554;SDS011;6343;50.868;4.700;2024-03-02T04:19:29;2.30;;;0.67;;
12554;SDS011;6343;50.868;4.700;2024-03-02T04:21:55;2.60;;;0.60;;
12554;SDS011;6343;50.868;4.700;2024-03-02T04:24:21;2.37;;;0.77;;
12554;SDS011;6343;50.868;4.700;2024-03-02T04:26:47;1.73;;;0.70;;
12554;SDS011;6343;50.868;4.700;2024-03-02T04:29:13;4.40;;;0.80;;
12554;SDS011;6343;50.868;4.700;2024-03-02T04:31:40;2.73;;;0.70;;
12554;SDS011;6343;50.868;4.700;2024-03-02T04:34:06;2.27;;;0.63;;
12554;SDS011;6343;50.868;4.700;2024-03-02T04:36:32;3.33;;;0.87;;
12554;SDS011;6343;50.868;4.700;2024-03-02T04:38:58;3.30;;;0.60;;
12554;SDS011;6343;50.868;4.700;2024-03-02T04:41:24;4.87;;;1.00;;
12554;SDS011;6343;50.868;4.700;2024-03-02T04:43:50;2.27;;;0.63;;
12554;SDS011;6343;50.868;4.700;2024-03-02T04:46:16;2.07;;;0.90;;
12554;SDS011;6343;50.868;4.700;2024-03-02T04:48:42;2.70;;;0.60;;
12554;SDS011;6343;50.868;4.700;2024-03-02T04:51:08;2.77;;;0.70;;
12554;SDS011;6343;50.868;4.700;2024-03-02T04:53:35;2.03;;;0.90;;
12554;SDS011;6343;50.868;4.700;2024-03-02T04:56:01;3.73;;;0.80;;
12554;SDS011;6343;50.868;4.700;2024-03-02T04:58:45;2.03;;;0.80;;
12554;SDS011;6343;50.868;4.700;2024-03-02T05:01:11;1.93;;;0.70;;
12554;SDS011;6343;50.868;4.700;2024-03-02T05:03:37;2.30;;;0.77;;
12554;SDS011;6343;50.868;4.700;2024-03-02T05:06:03;2.07;;;0.80;;
12554;SDS011;6343;50.868;4.700;2024-03-02T05:08:29;1.70;;;0.70;;
12554;SDS011;6343;50.868;4.700;2024-03-02T05:10:55;0.97;;;0.60;;
12554;SDS011;6343;50.868;4.700;2024-03-02T05:13:41;3.40;;;0.87;;
12554;SDS011;6343;50.868;4.700;2024-03-02T05:16:07;0.53;;;0.47;;
12554;SDS011;6343;50.868;4.700;2024-03-02T05:18:34;0.70;;;0.50;;
12554;SDS011;6343;50.868;4.700;2024-03-02T05:21:00;1.10;;;0.87;;
12554;SDS011;6343;50.868;4.700;2024-03-02T05:23:26;3.87;;;0.87;;
12554;SDS011;6343;50.868;4.700;2024-03-02T05:25:52;3.63;;;0.60;;
12554;SDS011;6343;50.868;4.700;2024-03-02T05:28:18;3.83;;;0.80;;
12554;SDS011;6343;50.868;4.700;2024-03-02T05:30:44;2.13;;;0.90;;
12554;SDS011;6343;50.868;4.700;2024-03-02T05:33:11;1.40;;;1.10;;
12554;SDS011;6343;50.868;4.700;2024-03-02T05:35:37;4.17;;;0.90;;
12554;SDS011;6343;50.868;4.700;2024-03-02T05:38:03;2.87;;;0.93;;
12554;SDS011;6343;50.868;4.700;2024-03-02T05:40:29;2.57;;;1.10;;
12554;SDS011;6343;50.868;4.700;2024-03-02T05:42:56;1.50;;;1.13;;
12554;SDS011;6343;50.868;4.700;2024-03-02T05:45:22;1.10;;;0.90;;
12554;SDS011;6343;50.868;4.700;2024-03-02T05:47:48;1.67;;;1.00;;
12554;SDS011;6343;50.868;4.700;2024-03-02T05:50:14;1.30;;;0.77;;
12554;SDS011;6343;50.868;4.700;2024-03-02T05:52:40;2.07;;;0.70;;
12554;SDS011;6343;50.868;4.700;2024-03-02T05:55:06;2.10;;;0.77;;
12554;SDS011;6343;50.868;4.700;2024-03-02T05:57:32;3.03;;;1.00;;
12554;SDS011;6343;50.868;4.700;2024-03-02T06:00:18;4.07;;;0.80;;
12554;SDS011;6343;50.868;4.700;2024-03-02T06:02:44;1.80;;;0.60;;
12554;SDS011;6343;50.868;4.700;2024-03-02T06:05:10;3.63;;;0.80;;
12554;SDS011;6343;50.868;4.700;2024-03-02T06:07:37;4.00;;;0.97;;
12554;SDS011;6343;50.868;4.700;2024-03-02T06:10:03;1.73;;;0.90;;
12554;SDS011;6343;50.868;4.700;2024-03-02T06:12:30;1.93;;;0.70;;
12554;SDS011;6343;50.868;4.700;2024-03-02T06:14:57;4.33;;;0.87;;
12554;SDS011;6343;50.868;4.700;2024-03-02T06:17:24;2.07;;;0.90;;
12554;SDS011;6343;50.868;4.700;2024-03-02T06:19:50;2.40;;;0.80;;
12554;SDS011;6343;50.868;4.700;2024-03-02T06:22:16;2.17;;;0.80;;
12554;SDS011;6343;50.868;4.700;2024-03-02T06:24:44;3.10;;;0.97;;
12554;SDS011;6343;50.868;4.700;2024-03-02T06:27:10;1.23;;;0.70;;
12554;SDS011;6343;50.868;4.700;2024-03-02T06:29:36;4.97;;;0.93;;
12554;SDS011;6343;50.868;4.700;2024-03-02T06:32:02;2.57;;;0.87;;
12554;SDS011;6343;50.868;4.700;2024-03-02T06:34:28;4.27;;;1.00;;
12554;SDS011;6343;50.868;4.700;2024-03-02T06:36:54;1.90;;;1.00;;
12554;SDS011;6343;50.868;4.700;2024-03-02T06:39:21;2.57;;;0.80;;
12554;SDS011;6343;50.868;4.700;2024-03-02T06:41:47;3.03;;;0.90;;
12554;SDS011;6343;50.868;4.700;2024-03-02T06:44:13;3.43;;;0.97;;
12554;SDS011;6343;50.868;4.700;2024-03-02T06:46:39;3.80;;;1.17;;
12554;SDS011;6343;50.868;4.700;2024-03-02T06:49:05;4.40;;;0.87;;
12554;SDS011;6343;50.868;4.700;2024-03-02T06:51:31;4.97;;;1.00;;
12554;SDS011;6343;50.868;4.700;2024-03-02T06:53:57;2.23;;;0.93;;
12554;SDS011;6343;50.868;4.700;2024-03-02T06:56:23;3.20;;;1.23;;
12554;SDS011;6343;50.868;4.700;2024-03-02T06:58:49;1.50;;;0.90;;
12554;SDS011;6343;50.868;4.700;2024-03-02T07:01:15;2.20;;;0.80;;
12554;SDS011;6343;50.868;4.700;2024-03-02T07:03:41;2.47;;;0.70;;
12554;SDS011;6343;50.868;4.700;2024-03-02T07:06:09;1.83;;;0.90;;
12554;SDS011;6343;50.868;4.700;2024-03-02T07:08:35;2.50;;;0.90;;
12554;SDS011;6343;50.868;4.700;2024-03-02T07:11:01;1.97;;;0.70;;
12554;SDS011;6343;50.868;4.700;2024-03-02T07:13:27;4.73;;;1.10;;
12554;SDS011;6343;50.868;4.700;2024-03-02T07:15:53;4.67;;;1.00;;
12554;SDS011;6343;50.868;4.700;2024-03-02T07:18:28;2.37;;;0.77;;
12554;SDS011;6343;50.868;4.700;2024-03-02T07:20:56;2.87;;;1.10;;
12554;SDS011;6343;50.868;4.700;2024-03-02T07:23:28;1.93;;;0.80;;
12554;SDS011;6343;50.868;4.700;2024-03-02T07:25:55;9.00;;;1.17;;
12554;SDS011;6343;50.868;4.700;2024-03-02T07:28:22;3.13;;;1.00;;
12554;SDS011;6343;50.868;4.700;2024-03-02T07:30:58;2.37;;;1.10;;
12554;SDS011;6343;50.868;4.700;2024-03-02T07:33:24;5.37;;;1.00;;
12554;SDS011;6343;50.868;4.700;2024-03-02T07:35:51;4.60;;;1.27;;
12554;SDS011;6343;50.868;4.700;2024-03-02T07:38:17;5.17;;;0.90;;
12554;SDS011;6343;50.868;4.700;2024-03-02T07:40:43;4.60;;;1.27;;
12554;SDS011;6343;50.868;4.700;2024-03-02T07:43:09;4.00;;;1.30;;
12554;SDS011;6343;50.868;4.700;2024-03-02T07:45:35;5.03;;;1.40;;
12554;SDS011;6343;50.868;4.700;2024-03-02T07:48:01;2.40;;;1.07;;
12554;SDS011;6343;50.868;4.700;2024-03-02T07:50:29;2.87;;;0.90;;
12554;SDS011;6343;50.868;4.700;2024-03-02T07:52:55;5.53;;;1.10;;
12554;SDS011;6343;50.868;4.700;2024-03-02T07:55:21;1.67;;;0.90;;
12554;SDS011;6343;50.868;4.700;2024-03-02T07:57:50;1.90;;;0.73;;
12554;SDS011;6343;50.868;4.700;2024-03-02T08:00:16;6.53;;;1.07;;
12554;SDS011;6343;50.868;4.700;2024-03-02T08:02:42;3.03;;;1.00;;
12554;SDS011;6343;50.868;4.700;2024-03-02T08:05:09;4.30;;;1.00;;
12554;SDS011;6343;50.868;4.700;2024-03-02T08:07:35;4.30;;;1.13;;
12554;SDS011;6343;50.868;4.700;2024-03-02T08:10:01;2.63;;;1.17;;
12554;SDS011;6343;50.868;4.700;2024-03-02T08:12:27;3.50;;;1.00;;
12554;SDS011;6343;50.868;4.700;2024-03-02T08:14:54;5.23;;;1.13;;
12554;SDS011;6343;50.868;4.700;2024-03-02T08:17:20;3.53;;;0.90;;
12554;SDS011;6343;50.868;4.700;2024-03-02T08:19:46;4.67;;;1.23;;
12554;SDS011;6343;50.868;4.700;2024-03-02T08:22:14;3.50;;;1.50;;
12554;SDS011;6343;50.868;4.700;2024-03-02T08:24:40;3.90;;;1.13;;
12554;SDS011;6343;50.868;4.700;2024-03-02T08:27:06;4.30;;;1.20;;
12554;SDS011;6343;50.868;4.700;2024-03-02T08:29:32;4.30;;;1.00;;
12554;SDS011;6343;50.868;4.700;2024-03-02T08:31:58;3.83;;;1.20;;
12554;SDS011;6343;50.868;4.700;2024-03-02T08:34:24;4.47;;;1.60;;
12554;SDS011;6343;50.868;4.700;2024-03-02T08:36:50;3.13;;;1.20;;
12554;SDS011;6343;50.868;4.700;2024-03-02T08:39:17;4.10;;;1.20;;
12554;SDS011;6343;50.868;4.700;2024-03-02T08:41:44;5.50;;;1.10;;
12554;SDS011;6343;50.868;4.700;2024-03-02T08:44:11;4.27;;;1.30;;
12554;SDS011;6343;50.868;4.700;2024-03-02T08:46:38;2.63;;;1.00;;
12554;SDS011;6343;50.868;4.700;2024-03-02T08:49:04;4.17;;;1.37;;
12554;SDS011;6343;50.868;4.700;2024-03-02T08:51:30;5.93;;;1.30;;
12554;SDS011;6343;50.868;4.700;2024-03-02T08:53:57;2.73;;;1.00;;
12554;SDS011;6343;50.868;4.700;2024-03-02T08:56:23;2.93;;;1.00;;
12554;SDS011;6343;50.868;4.700;2024-03-02T08:58:49;6.20;;;1.30;;
12554;SDS011;6343;50.868;4.700;2024-03-02T09:01:16;4.83;;;1.00;;
12554;SDS011;6343;50.868;4.700;2024-03-02T09:03:43;3.80;;;1.20;;
12554;SDS011;6343;50.868;4.700;2024-03-02T09:06:12;5.20;;;1.23;;
12554;SDS011;6343;50.868;4.700;2024-03-02T09:08:39;3.97;;;1.60;;
12554;SDS011;6343;50.868;4.700;2024-03-02T09:11:05;3.03;;;1.30;;
12554;SDS011;6343;50.868;4.700;2024-03-02T09:13:32;8.70;;;1.23;;
12554;SDS011;6343;50.868;4.700;2024-03-02T09:15:59;5.90;;;1.30;;
12554;SDS011;6343;50.868;4.700;2024-03-02T09:18:25;6.60;;;1.27;;
12554;SDS011;6343;50.868;4.700;2024-03-02T09:20:51;7.77;;;1.10;;
12554;SDS011;6343;50.868;4.700;2024-03-02T09:23:17;5.10;;;1.30;;
12554;SDS011;6343;50.868;4.700;2024-03-02T09:25:43;4.33;;;0.90;;
12554;SDS011;6343;50.868;4.700;2024-03-02T09:28:10;5.13;;;1.00;;
12554;SDS011;6343;50.868;4.700;2024-03-02T09:30:36;6.20;;;1.10;;
12554;SDS011;6343;50.868;4.700;2024-03-02T09:33:02;7.90;;;1.13;;
12554;SDS011;6343;50.868;4.700;2024-03-02T09:35:29;7.13;;;1.20;;
12554;SDS011;6343;50.868;4.700;2024-03-02T09:37:55;1.73;;;0.83;;
12554;SDS011;6343;50.868;4.700;2024-03-02T09:40:21;3.93;;;1.07;;
12554;SDS011;6343;50.868;4.700;2024-03-02T09:42:48;5.47;;;1.00;;
12554;SDS011;6343;50.868;4.700;2024-03-02T09:45:19;4.60;;;1.20;;
12554;SDS011;6343;50.868;4.700;2024-03-02T09:47:48;5.60;;;0.97;;
12554;SDS011;6343;50.868;4.700;2024-03-02T09:50:14;7.23;;;1.57;;
12554;SDS011;6343;50.868;4.700;2024-03-02T09:52:42;6.63;;;1.10;;
12554;SDS011;6343;50.868;4.700;2024-03-02T09:55:08;7.57;;;1.57;;
12554;SDS011;6343;50.868;4.700;2024-03-02T09:57:34;3.00;;;0.90;;
12554;SDS011;6343;50.868;4.700;2024-03-02T10:00:00;4.57;;;1.30;;
12554;SDS011;6343;50.868;4.700;2024-03-02T10:02:27;6.43;;;1.50;;
12554;SDS011;6343;50.868;4.700;2024-03-02T10:04:53;2.87;;;1.07;;
12554;SDS011;6343;50.868;4.700;2024-03-02T10:07:19;6.97;;;1.40;;
12554;SDS011;6343;50.868;4.700;2024-03-02T10:09:47;5.83;;;1.17;;
12554;SDS011;6343;50.868;4.700;2024-03-02T10:12:14;4.43;;;1.20;;
12554;SDS011;6343;50.868;4.700;2024-03-02T10:14:40;10.53;;;1.63;;
12554;SDS011;6343;50.868;4.700;2024-03-02T10:17:08;5.27;;;1.80;;
12554;SDS011;6343;50.868;4.700;2024-03-02T10:19:34;10.40;;;2.43;;
12554;SDS011;6343;50.868;4.700;2024-03-02T10:22:02;3.00;;;1.17;;
12554;SDS011;6343;50.868;4.700;2024-03-02T10:24:41;14.83;;;1.90;;
12554;SDS011;6343;50.868;4.700;2024-03-02T10:27:10;4.97;;;1.37;;
12554;SDS011;6343;50.868;4.700;2024-03-02T10:29:36;6.07;;;1.20;;
12554;SDS011;6343;50.868;4.700;2024-03-02T10:32:04;7.23;;;1.50;;
12554;SDS011;6343;50.868;4.700;2024-03-02T10:34:31;2.83;;;1.23;;
12554;SDS011;6343;50.868;4.700;2024-03-02T10:36:57;6.17;;;0.97;;
12554;SDS011;6343;50.868;4.700;2024-03-02T10:39:24;2.77;;;0.80;;
12554;SDS011;6343;50.868;4.700;2024-03-02T10:41:50;3.93;;;1.30;;
12554;SDS011;6343;50.868;4.700;2024-03-02T10:44:18;3.13;;;1.20;;
12554;SDS011;6343;50.868;4.700;2024-03-02T10:46:45;3.40;;;1.10;;
12554;SDS011;6343;50.868;4.700;2024-03-02T10:49:12;2.83;;;1.00;;
12554;SDS011;6343;50.868;4.700;2024-03-02T10:51:38;5.10;;;1.10;;
12554;SDS011;6343;50.868;4.700;2024-03-02T10:54:04;4.60;;;1.60;;
12554;SDS011;6343;50.868;4.700;2024-03-02T10:56:32;5.07;;;1.37;;
12554;SDS011;6343;50.868;4.700;2024-03-02T11:01:58;5.73;;;1.07;;
12554;SDS011;6343;50.868;4.700;2024-03-02T11:04:25;5.20;;;1.13;;
12554;SDS011;6343;50.868;4.700;2024-03-02T11:06:51;4.27;;;1.17;;
12554;SDS011;6343;50.868;4.700;2024-03-02T11:09:18;3.33;;;1.10;;
12554;SDS011;6343;50.868;4.700;2024-03-02T11:11:45;3.87;;;1.27;;
12554;SDS011;6343;50.868;4.700;2024-03-02T11:14:16;2.73;;;0.80;;
12554;SDS011;6343;50.868;4.700;2024-03-02T11:16:43;2.40;;;0.90;;
12554;SDS011;6343;50.868;4.700;2024-03-02T11:19:10;1.90;;;1.03;;
12554;SDS011;6343;50.868;4.700;2024-03-02T11:21:37;3.90;;;1.10;;
12554;SDS011;6343;50.868;4.700;2024-03-02T11:26:52;2.73;;;1.27;;
12554;SDS011;6343;50.868;4.700;2024-03-02T11:32:12;2.43;;;1.00;;
12554;SDS011;6343;50.868;4.700;2024-03-02T11:34:43;2.17;;;0.70;;
12554;SDS011;6343;50.868;4.700;2024-03-02T11:37:13;4.83;;;1.10;;
12554;SDS011;6343;50.868;4.700;2024-03-02T11:39:39;6.47;;;1.00;;
12554;SDS011;6343;50.868;4.700;2024-03-02T11:42:08;3.27;;;1.20;;
12554;SDS011;6343;50.868;4.700;2024-03-02T11:44:35;2.83;;;0.77;;
12554;SDS011;6343;50.868;4.700;2024-03-02T11:47:05;6.27;;;1.00;;
12554;SDS011;6343;50.868;4.700;2024-03-02T11:49:53;4.40;;;1.70;;
12554;SDS011;6343;50.868;4.700;2024-03-02T11:52:18;2.37;;;0.90;;
12554;SDS011;6343;50.868;4.700;2024-03-02T11:54:45;2.40;;;1.07;;
12554;SDS011;6343;50.868;4.700;2024-03-02T11:57:19;5.73;;;1.00;;
12554;SDS011;6343;50.868;4.700;2024-03-02T11:59:47;4.13;;;1.20;;
12554;SDS011;6343;50.868;4.700;2024-03-02T12:02:18;2.63;;;0.90;;
12554;SDS011;6343;50.868;4.700;2024-03-02T12:04:45;2.83;;;0.93;;
12554;SDS011;6343;50.868;4.700;2024-03-02T12:07:12;5.37;;;1.00;;
12554;SDS011;6343;50.868;4.700;2024-03-02T12:09:43;2.43;;;0.93;;
12554;SDS011;6343;50.868;4.700;2024-03-02T12:12:10;18.97;;;1.83;;
12554;SDS011;6343;50.868;4.700;2024-03-02T12:14:37;8.03;;;1.67;;
12554;SDS011;6343;50.868;4.700;2024-03-02T12:17:04;4.70;;;1.03;;
12554;SDS011;6343;50.868;4.700;2024-03-02T12:19:30;3.10;;;0.97;;
12554;SDS011;6343;50.868;4.700;2024-03-02T12:21:56;7.30;;;1.40;;
12554;SDS011;6343;50.868;4.700;2024-03-02T12:24:23;6.43;;;1.20;;
12554;SDS011;6343;50.868;4.700;2024-03-02T12:26:50;4.60;;;1.93;;
12554;SDS011;6343;50.868;4.700;2024-03-02T12:29:16;6.53;;;0.90;;
12554;SDS011;6343;50.868;4.700;2024-03-02T12:31:44;7.97;;;1.27;;
12554;SDS011;6343;50.868;4.700;2024-03-02T12:34:11;5.00;;;1.20;;
12554;SDS011;6343;50.868;4.700;2024-03-02T12:36:38;2.13;;;1.10;;
12554;SDS011;6343;50.868;4.700;2024-03-02T12:39:06;5.23;;;1.27;;
12554;SDS011;6343;50.868;4.700;2024-03-02T12:41:35;3.60;;;1.00;;
12554;SDS011;6343;50.868;4.700;2024-03-02T12:44:02;3.13;;;1.00;;
12554;SDS011;6343;50.868;4.700;2024-03-02T12:46:28;3.77;;;1.10;;
12554;SDS011;6343;50.868;4.700;2024-03-02T12:48:55;3.87;;;1.20;;
12554;SDS011;6343;50.868;4.700;2024-03-02T12:51:21;3.93;;;1.07;;
12554;SDS011;6343;50.868;4.700;2024-03-02T12:53:54;1.77;;;1.07;;
12554;SDS011;6343;50.868;4.700;2024-03-02T12:56:20;5.53;;;1.20;;
12554;SDS011;6343;50.868;4.700;2024-03-02T12:58:46;3.50;;;1.17;;
12554;SDS011;6343;50.868;4.700;2024-03-02T13:01:14;1.60;;;0.90;;
12554;SDS011;6343;50.868;4.700;2024-03-02T13:03:43;2.50;;;1.10;;
12554;SDS011;6343;50.868;4.700;2024-03-02T13:06:10;2.67;;;1.00;;
12554;SDS011;6343;50.868;4.700;2024-03-02T13:08:36;2.50;;;0.90;;
12554;SDS011;6343;50.868;4.700;2024-03-02T13:11:02;4.20;;;0.87;;
12554;SDS011;6343;50.868;4.700;2024-03-02T13:13:30;3.37;;;1.03;;
12554;SDS011;6343;50.868;4.700;2024-03-02T13:15:56;6.20;;;1.40;;
12554;SDS011;6343;50.868;4.700;2024-03-02T13:18:23;4.10;;;1.20;;
12554;SDS011;6343;50.868;4.700;2024-03-02T13:20:49;4.83;;;0.87;;
12554;SDS011;6343;50.868;4.700;2024-03-02T13:23:15;3.53;;;1.00;;
12554;SDS011;6343;50.868;4.700;2024-03-02T13:25:41;10.33;;;1.00;;
12554;SDS011;6343;50.868;4.700;2024-03-02T13:28:08;3.47;;;0.63;;
12554;SDS011;6343;50.868;4.700;2024-03-02T13:30:34;1.53;;;0.57;;
12554;SDS011;6343;50.868;4.700;2024-03-02T13:33:00;1.33;;;0.73;;
12554;SDS011;6343;50.868;4.700;2024-03-02T13:35:26;7.83;;;1.00;;
12554;SDS011;6343;50.868;4.700;2024-03-02T13:37:52;3.60;;;0.93;;
12554;SDS011;6343;50.868;4.700;2024-03-02T13:40:19;5.67;;;0.80;;
12554;SDS011;6343;50.868;4.700;2024-03-02T13:42:48;2.37;;;0.83;;
12554;SDS011;6343;50.868;4.700;2024-03-02T13:45:15;1.30;;;0.80;;
12554;SDS011;6343;50.868;4.700;2024-03-02T13:48:24;3.97;;;0.90;;
12554;SDS011;6343;50.868;4.700;2024-03-02T13:50:51;4.93;;;0.80;;
12554;SDS011;6343;50.868;4.700;2024-03-02T13:53:20;2.67;;;0.90;;
12554;SDS011;6343;50.868;4.700;2024-03-02T13:55:46;1.53;;;0.80;;
12554;SDS011;6343;50.868;4.700;2024-03-02T13:58:13;0.90;;;0.60;;
12554;SDS011;6343;50.868;4.700;2024-03-02T14:00:39;2.67;;;0.83;;
12554;SDS011;6343;50.868;4.700;2024-03-02T14:03:08;1.83;;;0.70;;
12554;SDS011;6343;50.868;4.700;2024-03-02T14:05:34;7.80;;;0.97;;
12554;SDS011;6343;50.868;4.700;2024-03-02T14:08:01;2.10;;;0.97;;
12554;SDS011;6343;50.868;4.700;2024-03-02T14:10:28;5.53;;;0.90;;
12554;SDS011;6343;50.868;4.700;2024-03-02T14:12:54;3.90;;;0.97;;
12554;SDS011;6343;50.868;4.700;2024-03-02T14:15:21;1.27;;;0.73;;
12554;SDS011;6343;50.868;4.700;2024-03-02T14:17:47;3.70;;;0.90;;
12554;SDS011;6343;50.868;4.700;2024-03-02T14:20:13;2.03;;;0.80;;
12554;SDS011;6343;50.868;4.700;2024-03-02T14:22:39;3.23;;;1.00;;
12554;SDS011;6343;50.868;4.700;2024-03-02T14:25:05;3.60;;;0.90;;
12554;SDS011;6343;50.868;4.700;2024-03-02T14:27:32;2.67;;;0.83;;
12554;SDS011;6343;50.868;4.700;2024-03-02T14:29:58;1.87;;;0.80;;
12554;SDS011;6343;50.868;4.700;2024-03-02T14:32:24;1.13;;;0.77;;
12554;SDS011;6343;50.868;4.700;2024-03-02T14:34:50;2.60;;;0.87;;
12554;SDS011;6343;50.868;4.700;2024-03-02T14:37:16;2.13;;;1.00;;
12554;SDS011;6343;50.868;4.700;2024-03-02T14:39:42;1.70;;;0.80;;
12554;SDS011;6343;50.868;4.700;2024-03-02T14:42:08;2.27;;;0.90;;
12554;SDS011;6343;50.868;4.700;2024-03-02T14:44:34;2.33;;;0.73;;
12554;SDS011;6343;50.868;4.700;2024-03-02T14:47:01;1.30;;;0.80;;
12554;SDS011;6343;50.868;4.700;2024-03-02T14:49:29;2.10;;;1.00;;
12554;SDS011;6343;50.868;4.700;2024-03-02T14:51:55;2.93;;;0.80;;
12554;SDS011;6343;50.868;4.700;2024-03-02T14:54:21;1.90;;;0.73;;
12554;SDS011;6343;50.868;4.700;2024-03-02T14:56:47;3.23;;;0.87;;
12554;SDS011;6343;50.868;4.700;2024-03-02T14:59:14;2.40;;;0.90;;
12554;SDS011;6343;50.868;4.700;2024-03-02T15:01:40;1.80;;;0.70;;
12554;SDS011;6343;50.868;4.700;2024-03-02T15:04:06;1.47;;;0.73;;
12554;SDS011;6343;50.868;4.700;2024-03-02T15:06:32;2.90;;;1.00;;
12554;SDS011;6343;50.868;4.700;2024-03-02T15:08:58;2.43;;;1.20;;
12554;SDS011;6343;50.868;4.700;2024-03-02T15:11:26;4.17;;;1.00;;